createdAt,value
2023-01-28T00:00:25.881Z,95236.00
2023-01-28T00:03:25.618Z,95234.00
2023-01-28T00:04:25.457Z,95236.00
2023-01-28T00:05:25.411Z,95232.00
2023-01-28T00:10:25.006Z,95236.00
2023-01-28T00:18:24.367Z,95236.00
2023-01-28T00:20:24.206Z,95236.00
2023-01-28T00:21:24.117Z,95238.00
2023-01-28T00:22:24.085Z,95240.00
2023-01-28T00:23:24.004Z,95242.00
2023-01-28T00:24:23.966Z,95242.00
2023-01-28T00:25:23.838Z,95240.00
2023-01-28T00:26:23.768Z,95242.00
2023-01-28T00:27:23.644Z,95244.00
2023-01-28T00:28:23.582Z,95240.00
2023-01-28T00:29:23.541Z,95242.00
2023-01-28T00:30:23.438Z,95242.00
2023-01-28T00:31:23.400Z,95240.00
2023-01-28T00:32:23.323Z,95240.00
2023-01-28T00:33:23.241Z,95238.00
2023-01-28T00:34:23.148Z,95236.00
2023-01-28T00:35:23.098Z,95238.00
2023-01-28T00:36:22.993Z,95236.00
2023-01-28T00:37:22.964Z,95236.00
2023-01-28T00:38:22.893Z,95234.00
2023-01-28T00:39:22.768Z,95236.00
2023-01-28T00:40:22.727Z,95236.00
2023-01-28T00:41:22.663Z,95236.00
2023-01-28T00:42:22.559Z,95234.00
2023-01-28T00:43:22.485Z,95236.00
2023-01-28T00:44:22.432Z,95234.00
2023-01-28T00:45:22.348Z,95232.00
2023-01-28T00:46:22.387Z,95230.00
2023-01-28T00:47:22.184Z,95230.00
2023-01-28T00:48:22.119Z,95228.00
2023-01-28T00:49:22.009Z,95228.00
2023-01-28T00:50:21.966Z,95224.00
2023-01-28T00:51:21.881Z,95228.00
2023-01-28T00:52:21.778Z,95230.00
2023-01-28T00:53:21.713Z,95230.00
2023-01-28T00:54:21.636Z,95228.00
2023-01-28T00:55:21.629Z,95226.00
2023-01-28T00:56:21.498Z,95224.00
2023-01-28T00:57:21.359Z,95224.00
2023-01-28T00:58:21.350Z,95226.00
2023-01-28T00:59:21.228Z,95226.00
2023-01-28T01:00:21.166Z,95226.00
2023-01-28T01:01:21.101Z,95226.00
2023-01-28T01:02:21.054Z,95222.00
2023-01-28T01:03:20.927Z,95224.00
2023-01-28T01:04:20.861Z,95226.00
2023-01-28T01:05:20.770Z,95226.00
2023-01-28T01:06:20.719Z,95228.00
2023-01-28T01:07:20.647Z,95228.00
2023-01-28T01:08:20.568Z,95226.00
2023-01-28T01:09:20.463Z,95228.00
2023-01-28T01:10:20.414Z,95230.00
2023-01-28T01:11:20.375Z,95234.00
2023-01-28T01:12:20.228Z,95234.00
2023-01-28T01:13:20.206Z,95234.00
2023-01-28T01:14:20.121Z,95234.00
2023-01-28T01:15:20.032Z,95236.00
2023-01-28T01:16:19.987Z,95234.00
2023-01-28T01:17:19.885Z,95234.00
2023-01-28T01:18:19.809Z,95234.00
2023-01-28T01:19:19.731Z,95240.00
2023-01-28T01:20:19.708Z,95238.00
2023-01-28T01:21:19.568Z,95240.00
2023-01-28T01:22:19.484Z,95240.00
2023-01-28T01:23:19.410Z,95240.00
2023-01-28T01:24:19.374Z,95238.00
2023-01-28T01:25:19.283Z,95238.00
2023-01-28T01:26:19.206Z,95240.00
2023-01-28T01:27:19.134Z,95244.00
2023-01-28T01:28:19.054Z,95246.00
2023-01-28T01:29:18.979Z,95248.00
2023-01-28T01:30:18.903Z,95244.00
2023-01-28T01:31:18.822Z,95244.00
2023-01-28T01:32:18.830Z,95244.00
2023-01-28T01:33:18.669Z,95240.00
2023-01-28T01:34:18.609Z,95238.00
2023-01-28T01:35:18.833Z,95238.00
2023-01-28T01:36:18.506Z,95240.00
2023-01-28T01:37:18.349Z,95238.00
2023-01-28T01:38:18.297Z,95238.00
2023-01-28T01:39:18.185Z,95238.00
2023-01-28T01:40:18.132Z,95240.00
2023-01-28T01:41:18.032Z,95242.00
2023-01-28T01:42:17.974Z,95244.00
2023-01-28T01:43:17.908Z,95244.00
2023-01-28T01:44:17.859Z,95242.00
2023-01-28T01:45:18.063Z,95244.00
2023-01-28T01:46:17.731Z,95244.00
2023-01-28T01:47:17.582Z,95244.00
2023-01-28T01:48:17.545Z,95238.00
2023-01-28T01:49:17.438Z,95236.00
2023-01-28T01:50:17.371Z,95242.00
2023-01-28T01:51:17.303Z,95240.00
2023-01-28T01:52:17.214Z,95236.00
2023-01-28T01:53:17.131Z,95236.00
2023-01-28T01:54:17.078Z,95234.00
2023-01-28T01:55:17.324Z,95234.00
2023-01-28T01:56:16.907Z,95234.00
2023-01-28T01:57:16.837Z,95232.00
2023-01-28T01:58:16.746Z,95232.00
2023-01-28T01:59:16.692Z,95234.00
2023-01-28T02:00:16.588Z,95232.00
2023-01-28T02:01:16.563Z,95228.00
2023-01-28T02:02:16.496Z,95228.00
2023-01-28T02:03:16.429Z,95234.00
2023-01-28T02:04:16.280Z,95232.00
2023-01-28T02:05:16.669Z,95234.00
2023-01-28T02:06:16.187Z,95236.00
2023-01-28T02:07:16.126Z,95236.00
2023-01-28T02:08:16.020Z,95234.00
2023-01-28T02:09:15.942Z,95232.00
2023-01-28T02:10:15.862Z,95232.00
2023-01-28T02:11:15.784Z,95232.00
2023-01-28T02:12:15.679Z,95234.00
2023-01-28T02:13:15.612Z,95234.00
2023-01-28T02:14:29.442Z,95232.00
2023-01-28T02:15:16.682Z,95234.00
2023-01-28T02:16:15.403Z,95232.00
2023-01-28T02:31:13.924Z,95224.00
2023-01-28T02:39:13.045Z,95226.00
2023-01-28T02:44:12.643Z,95228.00
2023-01-28T02:45:12.966Z,95228.00
2023-01-28T02:46:12.545Z,95230.00
2023-01-28T02:47:12.441Z,95230.00
2023-01-28T02:48:12.346Z,95230.00
2023-01-28T02:49:12.284Z,95232.00
2023-01-28T02:50:12.204Z,95230.00
2023-01-28T02:51:12.134Z,95228.00
2023-01-28T02:52:12.094Z,95232.00
2023-01-28T02:53:11.971Z,95236.00
2023-01-28T02:54:11.934Z,95236.00
2023-01-28T02:55:11.985Z,95238.00
2023-01-28T02:56:11.771Z,95238.00
2023-01-28T02:57:11.688Z,95238.00
2023-01-28T02:58:11.616Z,95238.00
2023-01-28T02:59:11.537Z,95240.00
2023-01-28T03:00:11.491Z,95242.00
2023-01-28T03:01:11.434Z,95242.00
2023-01-28T03:02:11.337Z,95242.00
2023-01-28T03:03:11.287Z,95242.00
2023-01-28T03:04:11.207Z,95240.00
2023-01-28T03:05:11.119Z,95242.00
2023-01-28T03:06:11.067Z,95242.00
2023-01-28T03:07:11.014Z,95238.00
2023-01-28T03:08:10.927Z,95242.00
2023-01-28T03:09:10.874Z,95244.00
2023-01-28T03:10:10.777Z,95246.00
2023-01-28T03:11:10.720Z,95246.00
2023-01-28T03:12:10.652Z,95244.00
2023-01-28T03:13:10.552Z,95244.00
2023-01-28T03:14:10.499Z,95244.00
2023-01-28T03:15:10.397Z,95246.00
2023-01-28T03:16:10.359Z,95246.00
2023-01-28T03:17:10.259Z,95248.00
2023-01-28T03:18:10.232Z,95248.00
2023-01-28T03:19:10.117Z,95252.00
2023-01-28T03:20:10.076Z,95254.00
2023-01-28T03:21:09.975Z,95252.00
2023-01-28T03:22:09.877Z,95258.00
2023-01-28T03:23:09.792Z,95258.00
2023-01-28T03:24:09.836Z,95254.00
2023-01-28T03:25:09.702Z,95256.00
2023-01-28T03:26:09.616Z,95256.00
2023-01-28T03:27:09.570Z,95256.00
2023-01-28T03:28:09.464Z,95254.00
2023-01-28T03:29:09.358Z,95254.00
2023-01-28T03:30:09.330Z,95258.00
2023-01-28T03:31:09.272Z,95258.00
2023-01-28T03:32:09.195Z,95260.00
2023-01-28T03:33:09.079Z,95260.00
2023-01-28T03:34:09.006Z,95260.00
2023-01-28T03:35:08.947Z,95262.00
2023-01-28T03:36:08.988Z,95264.00
2023-01-28T03:37:08.761Z,95264.00
2023-01-28T03:38:08.745Z,95266.00
2023-01-28T03:39:08.605Z,95268.00
2023-01-28T03:40:08.553Z,95268.00
2023-01-28T03:41:08.482Z,95269.00
2023-01-28T03:42:08.383Z,95269.00
2023-01-28T03:43:08.337Z,95273.00
2023-01-28T03:44:08.325Z,95277.00
2023-01-28T03:45:08.209Z,95273.00
2023-01-28T03:46:08.141Z,95275.00
2023-01-28T03:47:08.016Z,95277.00
2023-01-28T03:48:07.969Z,95277.00
2023-01-28T03:49:07.890Z,95275.00
2023-01-28T03:50:07.828Z,95275.00
2023-01-28T03:51:07.745Z,95275.00
2023-01-28T03:52:07.677Z,95279.00
2023-01-28T03:53:07.578Z,95279.00
2023-01-28T03:54:07.485Z,95279.00
2023-01-28T03:55:07.431Z,95279.00
2023-01-28T03:56:07.362Z,95279.00
2023-01-28T03:57:07.282Z,95279.00
2023-01-28T03:58:07.216Z,95281.00
2023-01-28T03:59:07.117Z,95283.00
2023-01-28T04:00:07.061Z,95281.00
2023-01-28T04:01:06.992Z,95281.00
2023-01-28T04:02:06.881Z,95281.00
2023-01-28T04:03:06.873Z,95279.00
2023-01-28T04:04:06.730Z,95279.00
2023-01-28T04:05:06.644Z,95279.00
2023-01-28T04:06:06.573Z,95279.00
2023-01-28T04:07:06.506Z,95281.00
2023-01-28T04:08:06.412Z,95283.00
2023-01-28T04:09:06.346Z,95281.00
2023-01-28T04:10:06.282Z,95283.00
2023-01-28T04:11:06.204Z,95285.00
2023-01-28T04:12:06.136Z,95285.00
2023-01-28T04:13:06.035Z,95287.00
2023-01-28T04:14:05.951Z,95291.00
2023-01-28T04:15:05.895Z,95291.00
2023-01-28T04:16:05.804Z,95289.00
2023-01-28T04:17:05.728Z,95291.00
2023-01-28T04:18:05.649Z,95291.00
2023-01-28T04:19:05.601Z,95291.00
2023-01-28T04:20:05.478Z,95291.00
2023-01-28T04:21:05.413Z,95291.00
2023-01-28T04:22:05.334Z,95289.00
2023-01-28T04:23:05.254Z,95289.00
2023-01-28T04:24:05.256Z,95289.00
2023-01-28T04:25:05.113Z,95287.00
2023-01-28T04:26:05.001Z,95287.00
2023-01-28T04:27:04.956Z,95287.00
2023-01-28T04:28:04.852Z,95285.00
2023-01-28T04:29:04.781Z,95287.00
2023-01-28T04:30:04.692Z,95287.00
2023-01-28T04:31:04.773Z,95289.00
2023-01-28T04:32:04.640Z,95289.00
2023-01-28T04:33:04.479Z,95291.00
2023-01-28T04:34:04.421Z,95291.00
2023-01-28T04:35:04.350Z,95293.00
2023-01-28T04:36:04.245Z,95295.00
2023-01-28T04:37:04.191Z,95291.00
2023-01-28T04:38:04.127Z,95291.00
2023-01-28T04:39:04.069Z,95289.00
2023-01-28T04:40:03.976Z,95293.00
2023-01-28T04:41:03.893Z,95293.00
2023-01-28T04:42:03.806Z,95295.00
2023-01-28T04:43:03.748Z,95297.00
2023-01-28T04:44:03.688Z,95301.00
2023-01-28T04:45:03.606Z,95299.00
2023-01-28T04:46:03.529Z,95299.00
2023-01-28T04:47:03.402Z,95303.00
2023-01-28T04:48:03.343Z,95305.00
2023-01-28T04:49:03.281Z,95303.00
2023-01-28T04:50:03.220Z,95305.00
2023-01-28T04:51:03.121Z,95307.00
2023-01-28T04:52:03.039Z,95305.00
2023-01-28T04:53:02.964Z,95307.00
2023-01-28T04:54:02.914Z,95309.00
2023-01-28T06:31:56.160Z,95375.00
2023-01-28T06:32:56.031Z,95375.00
2023-01-28T06:33:56.006Z,95379.00
2023-01-28T06:34:55.946Z,95381.00
2023-01-28T06:35:55.849Z,95379.00
2023-01-28T06:36:55.789Z,95375.00
2023-01-28T06:37:55.712Z,95383.00
2023-01-28T06:38:55.648Z,95383.00
2023-01-28T06:39:55.635Z,95385.00
2023-01-28T06:40:55.549Z,95383.00
2023-01-28T06:41:55.450Z,95381.00
2023-01-28T06:42:55.418Z,95389.00
2023-01-28T06:43:55.358Z,95389.00
2023-01-28T06:46:55.206Z,95383.00
2023-01-28T06:47:55.125Z,95383.00
2023-01-28T06:48:55.033Z,95383.00
2023-01-28T06:49:55.004Z,95383.00
2023-01-28T06:50:54.938Z,95383.00
2023-01-28T06:51:54.851Z,95383.00
2023-01-28T06:52:54.814Z,95381.00
2023-01-28T06:53:54.738Z,95381.00
2023-01-28T06:54:54.675Z,95381.00
2023-01-28T06:55:54.612Z,95381.00
2023-01-28T06:56:54.545Z,95381.00
2023-01-28T06:57:54.565Z,95381.00
2023-01-28T06:58:54.414Z,95383.00
2023-01-28T06:59:54.341Z,95383.00
2023-01-28T07:00:54.252Z,95385.00
2023-01-28T07:01:54.233Z,95385.00
2023-01-28T07:02:54.179Z,95387.00
2023-01-28T07:03:54.048Z,95387.00
2023-01-28T07:04:54.069Z,95389.00
2023-01-28T07:05:53.976Z,95391.00
2023-01-28T07:07:53.739Z,95391.00
2023-01-28T07:08:53.632Z,95393.00
2023-01-28T07:09:53.550Z,95395.00
2023-01-28T07:10:53.516Z,95395.00
2023-01-28T07:11:53.449Z,95397.00
2023-01-28T07:12:53.399Z,95403.00
2023-01-28T07:13:53.305Z,95397.00
2023-01-28T07:14:53.274Z,95399.00
2023-01-28T07:15:53.176Z,95399.00
2023-01-28T07:16:53.160Z,95399.00
2023-01-28T07:17:53.039Z,95401.00
2023-01-28T07:18:53.019Z,95401.00
2023-01-28T07:20:52.851Z,95401.00
2023-01-28T07:21:52.808Z,95403.00
2023-01-28T07:22:52.758Z,95407.00
2023-01-28T07:23:52.726Z,95401.00
2023-01-28T07:24:52.566Z,95403.00
2023-01-28T07:25:52.528Z,95403.00
2023-01-28T07:26:52.477Z,95403.00
2023-01-28T07:27:52.371Z,95405.00
2023-01-28T07:28:52.334Z,95405.00
2023-01-28T07:29:52.242Z,95405.00
2023-01-28T07:31:52.142Z,95418.00
2023-01-28T07:32:52.070Z,95409.00
2023-01-28T07:33:52.014Z,95418.00
2023-01-28T07:34:51.904Z,95416.00
2023-01-28T07:35:51.868Z,95416.00
2023-01-28T07:36:51.762Z,95418.00
2023-01-28T07:37:51.687Z,95418.00
2023-01-28T07:38:51.627Z,95420.00
2023-01-28T07:39:51.546Z,95420.00
2023-01-28T07:40:51.499Z,95424.00
2023-01-28T07:41:51.453Z,95424.00
2023-01-28T07:42:51.360Z,95426.00
2023-01-28T07:43:51.322Z,95426.00
2023-01-28T07:44:51.273Z,95428.00
2023-01-28T07:45:51.187Z,95430.00
2023-01-28T07:46:51.134Z,95434.00
2023-01-28T07:47:51.043Z,95434.00
2023-01-28T07:48:50.977Z,95436.00
2023-01-28T07:49:50.888Z,95436.00
2023-01-28T07:50:50.861Z,95436.00
2023-01-28T07:51:50.712Z,95436.00
2023-01-28T07:52:50.657Z,95438.00
2023-01-28T07:53:50.581Z,95440.00
2023-01-28T07:54:50.513Z,95440.00
2023-01-28T07:55:50.474Z,95442.00
2023-01-28T07:56:50.386Z,95442.00
2023-01-28T07:57:50.323Z,95444.00
2023-01-28T07:58:50.217Z,95444.00
2023-01-28T07:59:50.163Z,95446.00
2023-01-28T08:00:50.105Z,95446.00
2023-01-28T08:01:50.044Z,95448.00
2023-01-28T08:02:49.972Z,95446.00
2023-01-28T08:03:49.877Z,95452.00
2023-01-28T08:04:49.900Z,95454.00
2023-01-28T08:05:49.748Z,95454.00
2023-01-28T08:06:49.714Z,95454.00
2023-01-28T08:07:49.670Z,95452.00
2023-01-28T08:08:49.541Z,95454.00
2023-01-28T08:09:49.535Z,95456.00
2023-01-28T08:10:49.462Z,95458.00
2023-01-28T08:11:49.381Z,95462.00
2023-01-28T08:12:49.306Z,95465.00
2023-01-28T08:13:49.226Z,95465.00
2023-01-28T08:14:49.169Z,95465.00
2023-01-28T08:15:49.141Z,95467.00
2023-01-28T08:16:49.047Z,95469.00
2023-01-28T08:17:48.986Z,95467.00
2023-01-28T08:18:48.941Z,95469.00
2023-01-28T08:19:48.843Z,95471.00
2023-01-28T08:20:48.780Z,95473.00
2023-01-28T08:21:48.717Z,95475.00
2023-01-28T08:22:48.633Z,95479.00
2023-01-28T08:23:48.569Z,95479.00
2023-01-28T08:24:48.480Z,95479.00
2023-01-28T08:25:48.411Z,95479.00
2023-01-28T08:26:48.349Z,95479.00
2023-01-28T08:27:48.327Z,95479.00
2023-01-28T08:28:49.971Z,95477.00
2023-01-28T08:29:48.114Z,95481.00
2023-01-28T08:30:48.102Z,95479.00
2023-01-28T08:31:47.959Z,95479.00
2023-01-28T08:32:47.817Z,95477.00
2023-01-28T08:33:47.771Z,95477.00
2023-01-28T08:34:47.621Z,95479.00
2023-01-28T08:35:47.524Z,95479.00
2023-01-28T08:36:47.440Z,95477.00
2023-01-28T08:37:47.293Z,95479.00
2023-01-28T08:38:47.195Z,95481.00
2023-01-28T08:39:47.174Z,95477.00
2023-01-28T08:40:47.026Z,95481.00
2023-01-28T08:41:46.935Z,95479.00
2023-01-28T08:42:46.800Z,95481.00
2023-01-28T08:43:46.707Z,95483.00
2023-01-28T08:44:46.601Z,95483.00
2023-01-28T08:45:46.477Z,95479.00
2023-01-28T08:46:46.388Z,95479.00
2023-01-28T08:47:46.278Z,95479.00
2023-01-28T08:48:46.189Z,95477.00
2023-01-28T08:49:46.068Z,95477.00
2023-01-28T08:50:45.975Z,95477.00
2023-01-28T08:51:45.877Z,95473.00
2023-01-28T08:52:45.787Z,95475.00
2023-01-28T08:53:45.712Z,95473.00
2023-01-28T08:54:45.576Z,95475.00
2023-01-28T08:55:45.559Z,95475.00
2023-01-28T08:56:45.399Z,95477.00
2023-01-28T08:57:45.287Z,95477.00
2023-01-28T08:58:45.197Z,95473.00
2023-01-28T08:59:45.165Z,95477.00
2023-01-28T09:00:44.965Z,95475.00
2023-01-28T09:01:45.819Z,95475.00
2023-01-28T09:02:44.795Z,95475.00
2023-01-28T09:03:44.729Z,95475.00
2023-01-28T09:04:44.595Z,95475.00
2023-01-28T09:05:44.453Z,95477.00
2023-01-28T09:06:44.345Z,95479.00
2023-01-28T09:07:44.252Z,95479.00
2023-01-28T09:08:44.132Z,95481.00
2023-01-28T09:09:44.056Z,95479.00
2023-01-28T09:10:43.996Z,95477.00
2023-01-28T09:11:43.852Z,95477.00
2023-01-28T09:12:43.754Z,95479.00
2023-01-28T09:13:43.629Z,95479.00
2023-01-28T09:14:43.534Z,95477.00
2023-01-28T09:15:43.509Z,95479.00
2023-01-28T09:16:43.309Z,95483.00
2023-01-28T09:17:43.206Z,95483.00
2023-01-28T09:18:43.086Z,95483.00
2023-01-28T09:19:42.965Z,95487.00
2023-01-28T09:20:42.873Z,95483.00
2023-01-28T09:21:42.753Z,95489.00
2023-01-28T09:22:42.691Z,95487.00
2023-01-28T09:23:42.554Z,95489.00
2023-01-28T09:24:42.471Z,95491.00
2023-01-28T09:25:42.381Z,95493.00
2023-01-28T09:26:42.234Z,95491.00
2023-01-28T09:27:42.110Z,95491.00
2023-01-28T09:28:42.056Z,95493.00
2023-01-28T09:29:41.937Z,95493.00
2023-01-28T09:30:41.878Z,95493.00
2023-01-28T09:31:41.760Z,95495.00
2023-01-28T09:32:41.620Z,95501.00
2023-01-28T09:33:41.485Z,95499.00
2023-01-28T09:34:41.421Z,95499.00
2023-01-28T09:35:41.302Z,95503.00
2023-01-28T09:36:41.203Z,95505.00
2023-01-28T09:37:41.086Z,95507.00
2023-01-28T09:38:40.966Z,95514.00
2023-01-28T09:39:40.862Z,95516.00
2023-01-28T09:40:40.778Z,95516.00
2023-01-28T09:41:40.697Z,95518.00
2023-01-28T09:42:40.591Z,95520.00
2023-01-28T09:43:40.524Z,95518.00
2023-01-28T09:44:40.457Z,95522.00
2023-01-28T09:45:40.374Z,95526.00
2023-01-28T09:46:40.351Z,95524.00
2023-01-28T09:47:40.253Z,95530.00
2023-01-28T09:48:40.140Z,95532.00
2023-01-28T09:49:40.101Z,95530.00
2023-01-28T09:50:40.053Z,95530.00
2023-01-28T09:51:39.953Z,95532.00
2023-01-28T09:52:39.909Z,95530.00
2023-01-28T09:53:39.806Z,95534.00
2023-01-28T09:54:39.764Z,95532.00
2023-01-28T09:55:39.713Z,95532.00
2023-01-28T09:56:39.630Z,95532.00
2023-01-28T09:57:39.529Z,95526.00
2023-01-28T09:58:39.467Z,95524.00
2023-01-28T09:59:39.373Z,95524.00
2023-01-28T10:00:39.369Z,95524.00
2023-01-28T10:01:39.242Z,95522.00
2023-01-28T10:02:39.202Z,95520.00
2023-01-28T10:03:39.129Z,95520.00
2023-01-28T10:04:39.022Z,95516.00
2023-01-28T10:05:40.909Z,95510.00
2023-01-28T10:06:38.883Z,95512.00
2023-01-28T10:07:38.821Z,95509.00
2023-01-28T10:08:38.765Z,95507.00
2023-01-28T10:09:38.686Z,95507.00
2023-01-28T10:10:38.726Z,95505.00
2023-01-28T10:11:38.531Z,95505.00
2023-01-28T10:12:38.499Z,95505.00
2023-01-28T10:13:38.415Z,95503.00
2023-01-28T10:14:38.315Z,95501.00
2023-01-28T10:15:38.249Z,95499.00
2023-01-28T10:16:38.169Z,95499.00
2023-01-28T10:17:38.154Z,95497.00
2023-01-28T10:18:38.036Z,95497.00
2023-01-28T10:19:37.939Z,95495.00
2023-01-28T10:20:37.887Z,95493.00
2023-01-28T10:21:37.793Z,95497.00
2023-01-28T10:22:37.715Z,95495.00
2023-01-28T10:23:37.598Z,95493.00
2023-01-28T10:24:37.553Z,95491.00
2023-01-28T10:25:37.470Z,95491.00
2023-01-28T10:26:37.370Z,95489.00
2023-01-28T10:27:37.279Z,95487.00
2023-01-28T10:28:37.236Z,95485.00
2023-01-28T10:29:37.082Z,95487.00
2023-01-28T10:30:37.059Z,95487.00
2023-01-28T10:31:36.928Z,95483.00
2023-01-28T10:32:36.796Z,95481.00
2023-01-28T10:33:36.697Z,95485.00
2023-01-28T10:34:36.658Z,95481.00
2023-01-28T10:35:36.550Z,95479.00
2023-01-28T10:36:36.435Z,95477.00
2023-01-28T10:37:36.376Z,95475.00
2023-01-28T10:38:36.256Z,95475.00
2023-01-28T10:39:36.181Z,95473.00
2023-01-28T10:40:36.141Z,95473.00
2023-01-28T10:41:40.028Z,95469.00
2023-01-28T10:42:36.881Z,95467.00
2023-01-28T10:43:35.804Z,95467.00
2023-01-28T10:44:35.674Z,95467.00
2023-01-28T10:45:35.598Z,95465.00
2023-01-28T10:46:35.483Z,95467.00
2023-01-28T10:47:35.350Z,95467.00
2023-01-28T10:48:35.275Z,95465.00
2023-01-28T10:49:35.176Z,95465.00
2023-01-28T10:50:35.076Z,95467.00
2023-01-28T10:51:34.977Z,95467.00
2023-01-28T10:52:34.872Z,95469.00
2023-01-28T10:53:34.794Z,95467.00
2023-01-28T10:54:34.632Z,95467.00
2023-01-28T10:55:34.556Z,95467.00
2023-01-28T10:56:34.461Z,95469.00
2023-01-28T10:57:34.339Z,95467.00
2023-01-28T10:58:34.246Z,95467.00
2023-01-28T10:59:34.152Z,95465.00
2023-01-28T11:01:33.933Z,95463.00
2023-01-28T11:02:33.827Z,95462.00
2023-01-28T11:03:33.691Z,95467.00
2023-01-28T11:04:33.586Z,95467.00
2023-01-28T11:05:33.573Z,95469.00
2023-01-28T11:06:33.443Z,95469.00
2023-01-28T11:07:33.360Z,95465.00
2023-01-28T11:08:33.293Z,95463.00
2023-01-28T11:09:33.192Z,95460.00
2023-01-28T11:10:33.107Z,95462.00
2023-01-28T11:11:33.044Z,95460.00
2023-01-28T11:12:32.985Z,95460.00
2023-01-28T11:13:32.846Z,95456.00
2023-01-28T11:14:32.757Z,95460.00
2023-01-28T11:15:32.708Z,95458.00
2023-01-28T11:16:32.604Z,95460.00
2023-01-28T11:17:32.622Z,95458.00
2023-01-28T11:18:32.450Z,95456.00
2023-01-28T11:19:32.363Z,95456.00
2023-01-28T11:20:32.279Z,95456.00
2023-01-28T11:21:32.229Z,95454.00
2023-01-28T11:22:32.111Z,95454.00
2023-01-28T11:23:32.040Z,95452.00
2023-01-28T11:24:32.044Z,95454.00
2023-01-28T11:25:31.867Z,95452.00
2023-01-28T11:26:31.795Z,95452.00
2023-01-28T11:27:31.671Z,95452.00
2023-01-28T11:28:31.616Z,95452.00
2023-01-28T11:29:31.527Z,95454.00
2023-01-28T11:30:31.479Z,95452.00
2023-01-28T11:31:31.403Z,95454.00
2023-01-28T11:32:31.265Z,95452.00
2023-01-28T11:33:31.172Z,95454.00
2023-01-28T11:34:31.132Z,95452.00
2023-01-28T11:35:31.037Z,95450.00
2023-01-28T11:36:30.970Z,95450.00
2023-01-28T11:37:30.867Z,95450.00
2023-01-28T11:38:30.756Z,95450.00
2023-01-28T11:39:30.699Z,95448.00
2023-01-28T11:40:30.579Z,95450.00
2023-01-28T11:41:31.222Z,95452.00
2023-01-28T11:42:30.407Z,95450.00
2023-01-28T11:43:30.317Z,95450.00
2023-01-28T11:44:30.227Z,95452.00
2023-01-28T11:45:30.196Z,95450.00
2023-01-28T11:46:30.094Z,95448.00
2023-01-28T11:47:29.973Z,95448.00
2023-01-28T11:48:29.890Z,95446.00
2023-01-28T11:49:29.824Z,95446.00
2023-01-28T11:50:30.243Z,95442.00
2023-01-28T11:51:29.661Z,95442.00
2023-01-28T11:52:38.780Z,95446.00
2023-01-28T11:53:30.489Z,95444.00
2023-01-28T11:54:29.365Z,95448.00
2023-01-28T11:55:29.240Z,95448.00
2023-01-28T11:56:29.151Z,95448.00
2023-01-28T11:57:29.085Z,95446.00
2023-01-28T11:58:28.948Z,95448.00
2023-01-28T11:59:28.817Z,95446.00
2023-01-28T12:00:28.743Z,95446.00
2023-01-28T12:01:28.641Z,95446.00
2023-01-28T12:02:28.528Z,95444.00
2023-01-28T12:03:28.384Z,95444.00
2023-01-28T12:04:28.318Z,95444.00
2023-01-28T12:05:28.233Z,95444.00
2023-01-28T12:06:28.095Z,95442.00
2023-01-28T12:07:27.980Z,95440.00
2023-01-28T12:08:27.873Z,95438.00
2023-01-28T12:18:26.911Z,95436.00
2023-01-28T12:21:26.693Z,95430.00
2023-01-28T12:22:26.620Z,95428.00
2023-01-28T12:23:26.544Z,95426.00
2023-01-28T12:24:26.555Z,95428.00
2023-01-28T12:25:26.409Z,95424.00
2023-01-28T12:26:26.321Z,95428.00
2023-01-28T12:27:26.223Z,95426.00
2023-01-28T12:28:26.152Z,95428.00
2023-01-28T12:29:26.090Z,95430.00
2023-01-28T12:30:26.003Z,95428.00
2023-01-28T12:31:26.053Z,95430.00
2023-01-28T12:32:25.797Z,95430.00
2023-01-28T12:33:25.756Z,95430.00
2023-01-28T12:34:25.644Z,95424.00
2023-01-28T12:35:25.623Z,95422.00
2023-01-28T12:36:25.499Z,95422.00
2023-01-28T12:37:25.428Z,95424.00
2023-01-28T12:38:25.354Z,95426.00
2023-01-28T13:47:19.769Z,95424.00
2023-01-28T13:48:19.696Z,95424.00
2023-01-28T13:49:19.596Z,95422.00
2023-01-28T13:50:19.560Z,95424.00
2023-01-28T13:51:19.478Z,95424.00
2023-01-28T13:52:19.371Z,95424.00
2023-01-28T13:53:19.281Z,95422.00
2023-01-28T13:54:19.242Z,95428.00
2023-01-28T13:55:33.746Z,95424.00
2023-01-28T13:56:20.090Z,95424.00
2023-01-28T13:57:18.941Z,95422.00
2023-01-28T13:58:18.815Z,95424.00
2023-01-28T13:59:18.773Z,95424.00
2023-01-28T14:00:20.892Z,95426.00
2023-01-28T14:01:18.565Z,95430.00
2023-01-28T14:02:18.426Z,95432.00
2023-01-28T14:03:18.323Z,95432.00
2023-01-28T14:04:18.257Z,95432.00
2023-01-28T14:05:18.547Z,95432.00
2023-01-28T14:06:18.011Z,95432.00
2023-01-28T14:07:18.560Z,95434.00
2023-01-28T14:08:17.814Z,95436.00
2023-01-28T14:09:19.344Z,95436.00
2023-01-28T14:10:18.056Z,95440.00
2023-01-28T14:11:17.517Z,95442.00
2023-01-28T14:12:17.368Z,95442.00
2023-01-28T14:13:17.261Z,95444.00
2023-01-28T14:14:17.233Z,95444.00
2023-01-28T14:15:17.700Z,95446.00
2023-01-28T14:16:16.952Z,95448.00
2023-01-28T14:17:16.853Z,95450.00
2023-01-28T14:18:16.760Z,95452.00
2023-01-28T14:19:16.699Z,95454.00
2023-01-28T14:20:16.959Z,95456.00
2023-01-28T14:22:16.466Z,95458.00
2023-01-28T14:23:16.396Z,95458.00
2023-01-28T14:25:16.716Z,95456.00
2023-01-28T14:26:16.196Z,95456.00
2023-01-28T14:29:15.966Z,95463.00
2023-01-28T14:30:15.913Z,95465.00
2023-01-28T14:31:15.920Z,95463.00
2023-01-28T14:32:15.732Z,95467.00
2023-01-28T14:33:15.676Z,95467.00
2023-01-28T14:34:15.611Z,95469.00
2023-01-28T14:35:15.839Z,95469.00
2023-01-28T14:36:15.475Z,95471.00
2023-01-28T14:37:15.392Z,95469.00
2023-01-28T14:38:15.354Z,95471.00
2023-01-28T14:39:15.254Z,95471.00
2023-01-28T14:40:15.489Z,95471.00
2023-01-28T14:41:15.157Z,95473.00
2023-01-28T14:43:15.013Z,95475.00
2023-01-28T14:44:14.947Z,95477.00
2023-01-28T14:45:14.871Z,95479.00
2023-01-28T14:46:14.799Z,95481.00
2023-01-28T14:47:14.725Z,95477.00
2023-01-28T14:48:14.652Z,95479.00
2023-01-28T14:49:14.558Z,95483.00
2023-01-28T14:50:14.826Z,95485.00
2023-01-28T14:51:14.432Z,95485.00
2023-01-28T14:52:14.378Z,95483.00
2023-01-28T14:53:14.320Z,95485.00
2023-01-28T14:54:14.222Z,95487.00
2023-01-28T14:55:14.180Z,95487.00
2023-01-28T14:56:14.121Z,95485.00
2023-01-28T14:57:13.999Z,95483.00
2023-01-28T14:58:13.965Z,95481.00
2023-01-28T14:59:13.907Z,95483.00
2023-01-28T15:00:14.063Z,95483.00
2023-01-28T15:01:13.769Z,95479.00
2023-01-28T15:02:13.674Z,95485.00
2023-01-28T15:03:24.051Z,95481.00
2023-01-28T15:04:14.521Z,95481.00
2023-01-28T15:05:13.405Z,95481.00
2023-01-28T15:19:12.081Z,95495.00
2023-01-28T15:24:11.655Z,95501.00
2023-01-28T15:25:11.532Z,95501.00
2023-01-28T15:26:11.462Z,95501.00
2023-01-28T15:27:11.410Z,95503.00
2023-01-28T15:28:11.334Z,95505.00
2023-01-28T15:29:11.332Z,95505.00
2023-01-28T15:30:11.258Z,95503.00
2023-01-28T15:31:11.320Z,95505.00
2023-01-28T15:32:11.110Z,95505.00
2023-01-28T15:33:11.028Z,95509.00
2023-01-28T15:34:11.017Z,95509.00
2023-01-28T15:35:10.886Z,95510.00
2023-01-28T15:36:10.856Z,95510.00
2023-01-28T15:37:10.798Z,95512.00
2023-01-28T15:38:10.726Z,95512.00
2023-01-28T15:39:10.663Z,95516.00
2023-01-28T15:40:10.582Z,95516.00
2023-01-28T15:41:10.545Z,95518.00
2023-01-28T15:42:10.498Z,95518.00
2023-01-28T15:43:10.386Z,95518.00
2023-01-28T15:44:10.333Z,95524.00
2023-01-28T15:45:10.283Z,95522.00
2023-01-28T15:46:10.226Z,95522.00